createdAt,value
2022-12-24T00:01:38.557Z,12.00
2022-12-24T00:04:05.631Z,12.00
2022-12-24T00:06:32.488Z,12.00
2022-12-24T00:08:59.497Z,12.00
2022-12-24T00:11:26.378Z,12.00
2022-12-24T00:13:53.393Z,12.00
2022-12-24T00:16:20.314Z,12.00
2022-12-24T00:18:47.423Z,11.90
2022-12-24T00:21:15.163Z,11.90
2022-12-24T00:23:42.192Z,11.90
2022-12-24T00:26:09.131Z,11.90
2022-12-24T00:28:36.289Z,11.90
2022-12-24T00:31:15.207Z,11.90
2022-12-24T00:33:42.470Z,11.90
2022-12-24T00:36:09.974Z,11.90
2022-12-24T00:38:37.378Z,11.80
2022-12-24T00:41:05.121Z,11.90
2022-12-24T00:43:32.307Z,11.80
2022-12-24T00:45:59.743Z,11.90
2022-12-24T00:48:26.681Z,11.80
2022-12-24T00:50:53.624Z,11.90
2022-12-24T00:53:20.804Z,11.80
2022-12-24T00:55:47.693Z,11.80
2022-12-24T00:58:15.311Z,11.80
2022-12-24T01:00:42.256Z,11.80
2022-12-24T01:03:09.259Z,11.70
2022-12-24T01:05:36.344Z,11.80
2022-12-24T01:08:03.301Z,11.80
2022-12-24T01:10:30.211Z,11.70
2022-12-24T01:12:57.161Z,11.80
2022-12-24T01:15:24.000Z,11.80
2022-12-24T01:17:50.892Z,11.80
2022-12-24T01:20:18.190Z,11.80
2022-12-24T01:22:45.548Z,11.80
2022-12-24T01:25:12.704Z,11.80
2022-12-24T01:27:39.644Z,11.80
2022-12-24T01:30:07.810Z,11.80
2022-12-24T01:32:34.856Z,11.80
2022-12-24T01:35:01.714Z,11.80
2022-12-24T01:37:28.818Z,11.80
2022-12-24T01:40:18.323Z,11.90
2022-12-24T01:43:05.483Z,11.90
2022-12-24T01:45:50.922Z,11.90
2022-12-24T01:48:38.988Z,11.90
2022-12-24T01:51:09.089Z,11.90
2022-12-24T01:53:37.893Z,11.90
2022-12-24T01:56:06.059Z,11.90
2022-12-24T01:58:34.410Z,11.90
2022-12-24T02:01:03.048Z,11.90
2022-12-24T02:03:30.234Z,11.90
2022-12-24T02:05:58.230Z,11.90
2022-12-24T02:08:25.061Z,11.90
2022-12-24T02:10:51.955Z,11.90
2022-12-24T02:13:21.014Z,11.90
2022-12-24T02:15:57.121Z,11.80
2022-12-24T02:18:56.579Z,11.90
2022-12-24T02:21:41.892Z,11.90
2022-12-24T02:24:26.838Z,11.90
2022-12-24T02:26:53.770Z,11.90
2022-12-24T02:29:43.636Z,11.80
2022-12-24T02:32:28.804Z,11.90
2022-12-24T02:34:59.329Z,11.80
2022-12-24T02:37:28.324Z,11.80
2022-12-24T02:40:18.715Z,11.80
2022-12-24T02:42:48.641Z,11.90
2022-12-24T02:45:17.318Z,11.80
2022-12-24T02:47:45.333Z,11.80
2022-12-24T02:50:13.463Z,11.80
2022-12-24T02:52:42.013Z,11.90
2022-12-24T02:55:11.640Z,11.80
2022-12-24T02:57:56.739Z,11.80
2022-12-24T03:00:24.448Z,11.80
2022-12-24T03:02:51.390Z,11.80
2022-12-24T03:05:37.172Z,11.80
2022-12-24T03:08:07.840Z,11.80
2022-12-24T03:10:42.000Z,11.80
2022-12-24T03:13:19.147Z,11.90
2022-12-24T03:15:46.878Z,11.80
2022-12-24T03:18:15.793Z,11.80
2022-12-24T03:20:47.959Z,11.80
2022-12-24T03:23:15.114Z,11.80
2022-12-24T03:25:43.281Z,11.80
2022-12-24T03:28:11.899Z,11.80
2022-12-24T03:30:42.696Z,11.80
2022-12-24T03:33:10.313Z,11.70
2022-12-24T03:35:37.241Z,11.70
2022-12-24T03:38:04.556Z,11.70
2022-12-24T03:40:31.715Z,11.70
2022-12-24T03:42:58.778Z,11.70
2022-12-24T03:45:25.834Z,11.70
2022-12-24T03:47:52.777Z,11.70
2022-12-24T03:50:19.817Z,11.70
2022-12-24T03:52:46.739Z,11.70
2022-12-24T03:55:13.671Z,11.70
2022-12-24T03:57:40.526Z,11.70
2022-12-24T04:00:07.784Z,11.70
2022-12-24T04:02:34.759Z,11.70
2022-12-24T04:05:02.007Z,11.70
2022-12-24T04:07:28.977Z,11.70
2022-12-24T04:09:55.857Z,11.80
2022-12-24T04:12:22.780Z,11.80
2022-12-24T04:14:50.600Z,11.80
2022-12-24T04:17:17.921Z,11.80
2022-12-24T04:19:44.793Z,11.80
2022-12-24T04:22:11.649Z,11.80
2022-12-24T04:24:38.545Z,11.80
2022-12-24T04:27:05.452Z,11.80
2022-12-24T04:29:32.333Z,11.90
2022-12-24T04:31:59.231Z,11.80
2022-12-24T04:34:26.865Z,11.90
2022-12-24T04:36:53.713Z,11.90
2022-12-24T04:39:20.548Z,11.90
2022-12-24T04:41:47.386Z,11.80
2022-12-24T04:44:14.253Z,11.90
2022-12-24T04:46:42.528Z,11.90
2022-12-24T04:49:09.328Z,11.90
2022-12-24T04:51:36.487Z,11.90
2022-12-24T04:54:03.432Z,11.90
2022-12-24T04:56:31.947Z,11.90
2022-12-24T04:58:59.385Z,11.90
2022-12-24T05:01:28.245Z,11.90
2022-12-24T05:03:55.551Z,11.90
2022-12-24T05:06:24.790Z,11.90
2022-12-24T05:08:53.799Z,11.90
2022-12-24T05:11:20.730Z,11.90
2022-12-24T05:13:48.380Z,11.80
2022-12-24T05:16:16.108Z,11.80
2022-12-24T05:18:43.197Z,11.90
2022-12-24T05:21:10.966Z,11.80
2022-12-24T05:23:56.565Z,11.80
2022-12-24T05:26:42.446Z,11.80
2022-12-24T05:29:12.380Z,11.80
2022-12-24T05:31:40.430Z,11.70
2022-12-24T05:34:07.564Z,11.70
2022-12-24T05:36:34.411Z,11.70
2022-12-24T05:39:01.378Z,11.70
2022-12-24T05:41:28.315Z,11.70
2022-12-24T05:43:55.379Z,11.60
2022-12-24T05:46:22.986Z,11.60
2022-12-24T05:48:50.656Z,11.60
2022-12-24T05:51:22.739Z,11.60
2022-12-24T05:53:50.727Z,11.60
2022-12-24T05:56:19.907Z,11.50
2022-12-24T05:58:46.948Z,11.50
2022-12-24T06:01:14.661Z,11.50
2022-12-24T06:03:41.583Z,11.50
2022-12-24T06:06:13.210Z,11.50
2022-12-24T06:08:40.577Z,11.50
2022-12-24T06:11:09.042Z,11.50
2022-12-24T06:13:35.986Z,11.50
2022-12-24T06:16:03.928Z,11.50
2022-12-24T06:18:31.464Z,11.50
2022-12-24T06:20:58.824Z,11.60
2022-12-24T06:23:26.024Z,11.60
2022-12-24T06:25:52.957Z,11.60
2022-12-24T06:28:19.826Z,11.60
2022-12-24T06:30:47.642Z,11.60
2022-12-24T06:33:14.745Z,11.60
2022-12-24T06:35:41.761Z,11.60
2022-12-24T06:38:08.800Z,11.60
2022-12-24T06:40:35.649Z,11.50
2022-12-24T06:43:02.529Z,11.50
2022-12-24T06:45:29.562Z,11.60
2022-12-24T06:47:56.448Z,11.50
2022-12-24T06:50:23.346Z,11.60
2022-12-24T06:52:50.189Z,11.60
2022-12-24T06:55:17.110Z,11.60
2022-12-24T06:57:43.989Z,11.60
2022-12-24T07:00:11.450Z,11.60
2022-12-24T07:02:42.036Z,11.60
2022-12-24T07:05:12.465Z,11.60
2022-12-24T07:07:40.052Z,11.60
2022-12-24T07:10:07.563Z,11.60
2022-12-24T07:12:34.431Z,11.60
2022-12-24T07:15:01.268Z,11.50
2022-12-24T07:17:28.316Z,11.50
2022-12-24T07:19:55.257Z,11.60
2022-12-24T07:22:22.142Z,11.60
2022-12-24T07:24:49.045Z,11.60
2022-12-24T07:27:16.030Z,11.60
2022-12-24T07:29:42.945Z,11.60
2022-12-24T07:32:10.118Z,11.60
2022-12-24T07:34:36.944Z,11.60
2022-12-24T07:37:03.877Z,11.60
2022-12-24T07:39:30.728Z,11.50
2022-12-24T07:41:57.806Z,11.60
2022-12-24T07:44:25.315Z,11.50
2022-12-24T07:46:52.264Z,11.50
2022-12-24T07:49:19.308Z,11.60
2022-12-24T07:51:46.153Z,11.50
2022-12-24T07:54:13.076Z,11.50
2022-12-24T07:56:39.958Z,11.60
2022-12-24T07:59:06.845Z,11.60
2022-12-24T08:01:33.825Z,11.60
2022-12-24T08:04:00.869Z,11.50
2022-12-24T08:06:27.819Z,11.50
2022-12-24T08:08:54.733Z,11.60
2022-12-24T08:11:21.609Z,11.60
2022-12-24T08:13:48.505Z,11.60
2022-12-24T08:16:15.642Z,11.60
2022-12-24T08:18:42.676Z,11.50
2022-12-24T08:21:10.028Z,11.60
2022-12-24T08:23:37.260Z,11.50
2022-12-24T08:26:07.151Z,11.50
2022-12-24T08:28:34.616Z,11.50
2022-12-24T08:31:01.598Z,11.50
2022-12-24T08:33:28.618Z,11.50
2022-12-24T08:35:56.506Z,11.50
2022-12-24T08:38:23.448Z,11.50
2022-12-24T08:40:50.538Z,11.60
2022-12-24T08:43:17.947Z,11.50
2022-12-24T08:45:45.265Z,11.60
2022-12-24T08:48:12.347Z,11.60
2022-12-24T08:50:39.762Z,11.50
2022-12-24T08:53:06.798Z,11.60
2022-12-24T08:55:33.657Z,11.60
2022-12-24T08:58:00.934Z,11.50
2022-12-24T09:00:27.820Z,11.60
2022-12-24T09:02:54.744Z,11.60
2022-12-24T09:05:21.679Z,11.60
2022-12-24T09:07:48.668Z,11.60
2022-12-24T09:10:15.543Z,11.60
2022-12-24T09:12:42.501Z,11.60
2022-12-24T09:15:09.633Z,11.60
2022-12-24T09:17:36.680Z,11.60
2022-12-24T09:20:04.162Z,11.60
2022-12-24T09:22:30.999Z,11.60
2022-12-24T09:24:57.898Z,11.70
2022-12-24T09:27:24.701Z,11.60
2022-12-24T09:29:51.663Z,11.70
2022-12-24T09:32:18.638Z,11.70
2022-12-24T09:34:45.552Z,11.70
2022-12-24T09:37:12.414Z,11.70
2022-12-24T09:39:39.311Z,11.70
2022-12-24T09:42:24.614Z,11.70
2022-12-24T09:44:59.078Z,11.70
2022-12-24T09:47:32.701Z,11.80
2022-12-24T09:50:01.551Z,11.80
2022-12-24T09:52:40.888Z,11.90
2022-12-24T09:55:23.283Z,11.80
2022-12-24T09:57:51.932Z,11.90
2022-12-24T10:00:23.462Z,11.90
2022-12-24T10:02:50.702Z,11.90
2022-12-24T10:05:18.446Z,11.90
2022-12-24T10:07:53.145Z,12.00
2022-12-24T10:10:37.262Z,12.00
2022-12-24T10:13:04.612Z,12.00
2022-12-24T10:15:50.271Z,12.00
2022-12-24T10:18:17.114Z,12.00
2022-12-24T10:21:02.603Z,12.00
2022-12-24T10:23:35.244Z,12.00
2022-12-24T10:26:07.813Z,12.10
2022-12-24T10:28:41.278Z,12.10
2022-12-24T10:31:08.798Z,12.10
2022-12-24T10:33:41.887Z,12.10
2022-12-24T10:36:12.463Z,12.10
2022-12-24T10:38:39.476Z,12.10
2022-12-24T10:41:06.820Z,12.20
2022-12-24T10:43:33.775Z,12.20
2022-12-24T10:46:02.322Z,12.20
2022-12-24T10:48:31.003Z,12.20
2022-12-24T10:50:57.879Z,12.30
2022-12-24T10:53:28.577Z,12.30
2022-12-24T10:56:05.499Z,12.30
2022-12-24T10:58:33.082Z,12.30
2022-12-24T11:00:59.987Z,12.40
2022-12-24T11:03:31.600Z,12.40
2022-12-24T11:06:13.913Z,12.40
2022-12-24T11:08:45.196Z,12.50
2022-12-24T11:11:13.471Z,12.60
2022-12-24T11:13:43.515Z,12.80
2022-12-24T11:16:17.275Z,12.90
2022-12-24T11:18:52.599Z,12.90
2022-12-24T11:21:33.840Z,13.00
2022-12-24T11:24:00.736Z,13.00
2022-12-24T11:26:29.264Z,13.00
2022-12-24T11:29:15.108Z,13.00
2022-12-24T11:31:43.191Z,13.00
2022-12-24T11:34:30.083Z,13.00
2022-12-24T11:37:14.911Z,13.00
2022-12-24T11:39:45.348Z,13.00
2022-12-24T11:42:41.430Z,13.00
2022-12-24T11:45:17.900Z,13.10
2022-12-24T11:47:44.777Z,13.10
2022-12-24T11:50:27.144Z,13.10
2022-12-24T11:53:03.397Z,13.10
2022-12-24T11:55:45.552Z,13.10
2022-12-24T11:58:23.198Z,13.10
2022-12-24T12:00:51.347Z,13.20
2022-12-24T12:03:27.965Z,13.20
2022-12-24T12:05:56.130Z,13.20
2022-12-24T12:08:23.738Z,13.30
2022-12-24T12:10:51.933Z,13.30
2022-12-24T12:13:34.297Z,13.40
2022-12-24T12:16:17.339Z,13.40
2022-12-24T12:18:48.160Z,13.40
2022-12-24T12:21:24.688Z,13.40
2022-12-24T12:24:14.903Z,13.50
2022-12-24T12:26:43.517Z,13.50
2022-12-24T12:29:10.317Z,13.60
2022-12-24T12:31:41.967Z,13.60
2022-12-24T12:34:21.064Z,13.70
2022-12-24T12:36:57.673Z,13.80
2022-12-24T12:39:24.563Z,13.80
2022-12-24T12:41:51.577Z,13.80
2022-12-24T12:44:29.547Z,13.80
2022-12-24T12:47:11.675Z,13.80
2022-12-24T12:49:41.965Z,13.80
2022-12-24T12:52:29.179Z,13.90
2022-12-24T12:55:04.953Z,13.80
2022-12-24T12:57:34.854Z,13.80
2022-12-24T13:00:07.348Z,13.90
2022-12-24T13:02:49.406Z,13.90
2022-12-24T13:05:28.288Z,14.00
2022-12-24T13:08:18.864Z,14.00
2022-12-24T13:10:45.754Z,14.00
2022-12-24T13:13:21.877Z,14.10
2022-12-24T13:15:59.728Z,14.10
2022-12-24T13:18:38.976Z,14.10
2022-12-24T13:21:13.119Z,14.00
2022-12-24T13:23:40.002Z,14.00
2022-12-24T13:26:11.296Z,13.90
2022-12-24T13:28:38.833Z,13.90
2022-12-24T13:31:11.844Z,13.80
2022-12-24T13:33:38.736Z,13.80
2022-12-24T13:36:05.681Z,13.80
2022-12-24T13:38:32.557Z,13.80
2022-12-24T13:41:41.063Z,13.80
2022-12-24T13:44:13.314Z,13.80
2022-12-24T13:46:58.802Z,13.70
2022-12-24T13:49:28.476Z,13.80
2022-12-24T13:52:10.604Z,13.70
2022-12-24T13:54:38.723Z,13.70
2022-12-24T13:57:23.780Z,13.70
2022-12-24T13:59:57.256Z,13.70
2022-12-24T14:02:24.305Z,13.60
2022-12-24T14:04:51.940Z,13.70
2022-12-24T14:07:19.440Z,13.60
2022-12-24T14:09:49.904Z,13.60
2022-12-24T14:12:30.656Z,13.50
2022-12-24T14:14:57.535Z,13.40
2022-12-24T14:17:25.917Z,13.40
2022-12-24T14:19:54.255Z,13.30
2022-12-24T14:22:27.315Z,13.30
2022-12-24T14:25:04.818Z,13.20
2022-12-24T14:27:48.301Z,13.20
2022-12-24T14:30:21.039Z,13.20
2022-12-24T14:32:49.057Z,13.10
2022-12-24T14:35:39.173Z,13.10
2022-12-24T14:38:06.065Z,13.00
2022-12-24T14:40:34.814Z,13.00
2022-12-24T14:43:09.801Z,13.00
2022-12-24T14:45:46.217Z,13.00
2022-12-24T14:48:16.185Z,12.90
2022-12-24T14:50:43.087Z,12.90
2022-12-24T14:53:33.254Z,12.90
2022-12-24T14:56:08.872Z,12.80
2022-12-24T14:58:43.941Z,12.80
2022-12-24T15:01:19.935Z,12.80
2022-12-24T15:03:46.983Z,12.70
2022-12-24T15:06:14.488Z,12.70
2022-12-24T15:08:48.881Z,12.70
2022-12-24T15:11:20.156Z,12.70
2022-12-24T15:13:57.546Z,12.70
2022-12-24T15:16:26.502Z,12.70
2022-12-24T15:19:13.599Z,12.60
2022-12-24T15:21:42.688Z,12.60
2022-12-24T15:24:29.811Z,12.70
2022-12-24T15:26:56.788Z,12.70
2022-12-24T15:29:24.706Z,12.70
2022-12-24T15:32:02.272Z,12.70
2022-12-24T15:34:35.099Z,12.70
2022-12-24T15:37:22.192Z,12.70
2022-12-24T15:39:56.037Z,12.60
2022-12-24T15:42:24.565Z,12.60
2022-12-24T15:45:03.608Z,12.60
2022-12-24T15:47:38.372Z,12.50
2022-12-24T15:50:16.875Z,12.50
2022-12-24T15:52:43.940Z,12.40
2022-12-24T15:55:29.564Z,12.40
2022-12-24T15:57:56.483Z,12.30
2022-12-24T16:00:33.448Z,12.20
2022-12-24T16:03:33.208Z,12.10
2022-12-24T16:06:11.487Z,12.10
2022-12-24T16:08:40.261Z,12.00
2022-12-24T16:11:21.105Z,11.90
2022-12-24T16:13:51.178Z,11.80
2022-12-24T16:16:22.674Z,11.80
2022-12-24T16:18:52.766Z,11.70
2022-12-24T16:21:23.759Z,11.60
2022-12-24T16:23:52.544Z,11.60
2022-12-24T16:26:20.259Z,11.50
2022-12-24T16:28:47.114Z,11.50
2022-12-24T16:31:18.692Z,11.40
2022-12-24T16:33:46.528Z,11.30
2022-12-24T16:36:13.673Z,11.30
2022-12-24T16:38:59.102Z,11.20
2022-12-24T16:41:30.286Z,11.10
2022-12-24T16:48:29.504Z,11.10
2022-12-24T16:50:55.480Z,11.10
2022-12-24T16:54:02.107Z,11.00
2022-12-24T16:56:28.916Z,10.90
2022-12-24T16:58:55.745Z,10.90
2022-12-24T17:01:22.605Z,10.90
2022-12-24T17:03:49.621Z,10.90
2022-12-24T17:06:16.517Z,10.90
2022-12-24T17:08:43.472Z,10.90
2022-12-24T17:11:10.263Z,10.90
2022-12-24T17:13:41.849Z,10.90
2022-12-24T17:16:08.751Z,10.90
2022-12-24T17:18:35.742Z,10.90
2022-12-24T17:21:04.351Z,10.90
2022-12-24T17:23:31.206Z,10.90
2022-12-24T17:25:58.215Z,10.90
2022-12-24T17:28:25.361Z,10.90
2022-12-24T17:30:52.356Z,10.80
2022-12-24T17:33:19.270Z,10.90
2022-12-24T17:35:48.483Z,10.90
2022-12-24T17:38:15.656Z,10.90
2022-12-24T17:40:42.530Z,10.80
2022-12-24T17:43:09.484Z,10.80
2022-12-24T17:45:40.537Z,10.80
2022-12-24T17:48:07.412Z,10.80
2022-12-24T17:50:37.630Z,10.80
2022-12-24T17:53:04.487Z,10.80
2022-12-24T17:55:31.346Z,10.80
2022-12-24T17:57:59.416Z,10.70
2022-12-24T18:00:31.149Z,10.70
2022-12-24T18:03:00.122Z,10.70
2022-12-24T18:05:27.109Z,10.70
2022-12-24T18:07:53.995Z,10.60
2022-12-24T18:10:21.391Z,10.60
2022-12-24T18:12:48.234Z,10.60
2022-12-24T18:15:18.216Z,10.50
2022-12-24T18:17:45.129Z,10.50
2022-12-24T18:20:12.336Z,10.40
2022-12-24T18:22:39.540Z,10.40
2022-12-24T18:25:06.989Z,10.40
2022-12-24T18:27:34.911Z,10.30
2022-12-24T18:30:01.872Z,10.30
2022-12-24T18:32:28.706Z,10.20
2022-12-24T18:34:55.640Z,10.20
2022-12-24T18:37:22.527Z,10.20
2022-12-24T18:39:49.429Z,10.20
2022-12-24T18:42:16.298Z,10.10
2022-12-24T18:44:43.870Z,10.00
2022-12-24T18:47:11.141Z,10.00
2022-12-24T18:49:38.480Z,10.00
2022-12-24T18:52:06.019Z,9.90
2022-12-24T18:54:32.886Z,9.90
2022-12-24T18:56:59.753Z,9.90
2022-12-24T18:59:26.997Z,9.80
2022-12-24T19:01:53.982Z,9.80
2022-12-24T19:04:21.132Z,9.80
2022-12-24T19:06:52.926Z,9.80
2022-12-24T19:09:20.991Z,9.80
2022-12-24T19:11:47.922Z,9.80
2022-12-24T19:14:15.022Z,9.80
2022-12-24T19:16:41.989Z,9.80
2022-12-24T19:19:09.744Z,9.80
2022-12-24T19:21:36.628Z,9.80
2022-12-24T19:24:03.620Z,9.70
2022-12-24T19:26:30.533Z,9.70
2022-12-24T19:28:57.338Z,9.70
2022-12-24T19:31:25.349Z,9.70
2022-12-24T19:33:53.556Z,9.70
2022-12-24T19:36:25.307Z,9.70
2022-12-24T19:38:52.211Z,9.70
2022-12-24T19:41:20.576Z,9.70
2022-12-24T19:43:49.099Z,9.70
2022-12-24T19:46:17.692Z,9.70
2022-12-24T19:48:48.489Z,9.60
2022-12-24T19:51:15.481Z,9.60
2022-12-24T19:53:42.538Z,9.60
2022-12-24T19:56:09.459Z,9.60
2022-12-24T19:58:36.668Z,9.70
2022-12-24T20:01:15.597Z,9.70
2022-12-24T20:03:44.246Z,9.80
2022-12-24T20:06:11.393Z,9.80
2022-12-24T20:08:38.684Z,9.90
2022-12-24T20:11:10.224Z,9.90
2022-12-24T20:13:37.615Z,9.90
2022-12-24T20:16:08.906Z,9.90
2022-12-24T20:18:36.190Z,9.90
2022-12-24T20:21:04.397Z,10.00
2022-12-24T20:23:31.339Z,10.00
2022-12-24T20:25:59.423Z,10.00
2022-12-24T20:28:26.859Z,10.10
2022-12-24T20:30:53.721Z,10.00
2022-12-24T20:33:20.989Z,10.10
2022-12-24T20:35:48.094Z,10.10
2022-12-24T20:38:15.174Z,10.10
2022-12-24T20:40:43.127Z,10.10
2022-12-24T20:43:10.488Z,10.10
2022-12-24T20:45:38.273Z,10.10
2022-12-24T20:48:05.867Z,10.10
2022-12-24T20:50:33.004Z,10.20
2022-12-24T20:52:59.904Z,10.20
2022-12-24T20:55:26.771Z,10.20
2022-12-24T20:57:53.639Z,10.20
2022-12-24T21:00:20.981Z,10.20
2022-12-24T21:02:47.971Z,10.20
2022-12-24T21:05:15.467Z,10.20
2022-12-24T21:07:43.723Z,10.20
2022-12-24T21:10:12.598Z,10.20
2022-12-24T21:12:49.259Z,10.20
2022-12-24T21:15:16.874Z,10.20
2022-12-24T21:17:43.720Z,10.10
2022-12-24T21:20:10.951Z,10.20
2022-12-24T21:22:38.335Z,10.10
2022-12-24T21:25:05.639Z,10.10
2022-12-24T21:27:32.470Z,10.20
2022-12-24T21:29:59.405Z,10.20
2022-12-24T21:32:26.295Z,10.10
2022-12-24T21:34:53.203Z,10.20
2022-12-24T21:37:20.619Z,10.20
2022-12-24T21:39:48.264Z,10.20
2022-12-24T21:42:16.365Z,10.20
2022-12-24T21:48:30.013Z,10.20
2022-12-24T21:50:56.901Z,10.10
2022-12-24T21:53:42.522Z,10.10
2022-12-24T21:56:10.555Z,10.20
2022-12-24T21:58:37.665Z,10.10
2022-12-24T22:01:08.838Z,10.10
2022-12-24T22:03:36.449Z,10.10
2022-12-24T22:06:03.372Z,10.10
2022-12-24T22:08:49.044Z,10.10
2022-12-24T22:11:34.907Z,10.00
2022-12-24T22:14:02.002Z,10.00
2022-12-24T22:16:30.415Z,10.00
2022-12-24T22:18:57.923Z,10.00
2022-12-24T22:21:24.788Z,9.90
2022-12-24T22:23:51.713Z,9.90
2022-12-24T22:26:18.591Z,9.90
2022-12-24T22:28:45.491Z,9.90
2022-12-24T22:31:23.811Z,9.90
2022-12-24T22:33:51.077Z,9.90
2022-12-24T22:36:17.921Z,9.80
2022-12-24T22:38:45.272Z,9.80
2022-12-24T22:41:12.598Z,9.80
2022-12-24T22:43:39.884Z,9.80
2022-12-24T22:46:07.870Z,9.90
2022-12-24T22:48:38.529Z,9.80
2022-12-24T22:51:09.428Z,9.80
2022-12-24T22:53:36.339Z,9.90
2022-12-24T22:56:03.732Z,9.90
2022-12-24T22:58:30.693Z,9.90
2022-12-24T23:00:57.748Z,9.90
2022-12-24T23:03:25.442Z,9.90
2022-12-24T23:05:59.306Z,10.00
2022-12-24T23:08:26.705Z,10.00
2022-12-24T23:10:54.935Z,10.00
2022-12-24T23:13:40.417Z,10.00
2022-12-24T23:16:07.420Z,10.10
2022-12-24T23:18:34.531Z,10.00
2022-12-24T23:21:04.294Z,10.10
2022-12-24T23:23:36.579Z,10.10
2022-12-24T23:26:08.455Z,10.10
2022-12-24T23:28:35.756Z,10.10
2022-12-24T23:31:02.726Z,10.10
2022-12-24T23:33:29.828Z,10.10
2022-12-24T23:35:56.959Z,10.10
2022-12-24T23:38:23.929Z,10.20
2022-12-24T23:40:50.836Z,10.20
2022-12-24T23:43:17.743Z,10.20
2022-12-24T23:45:50.705Z,10.20
2022-12-24T23:48:17.944Z,10.20
2022-12-24T23:50:45.170Z,10.30
2022-12-24T23:53:12.383Z,10.30
2022-12-24T23:55:39.558Z,10.30
2022-12-24T23:58:07.205Z,10.30
